Milbank, South Dakota
Current Conditions -  °F | °C
As of 12:54 AM on Monday 24 Nov 2014 (Local Time) from KVVV Reporting Station
Light Snow Light Snow  
Wind Chill:   Ceiling: 1700
Heat Index: 19°   Visibility: 7mi
Dew Point: 14°   Wind: 23mph
Humidity: 80%   Direction: 320°NW
Pressure: 29.52"   Gusts: 28mph
Location:  45.22°N, 96.63°W
Report Text: KVVV 240654Z AUTO 32020G24KT 7SM -SN OVC017 M07/M10 A2952 RMK AO2
Loading
Personal Weather Stations






























Interactive Weather Map New forecast layout! Learn more

10-Day Weather Forecast

Advertisements
Track Severe Weather on mobile